EGHIEGSH

Guest
Details From EGHI - Southampton
To EGSH - Norwich
Flight Number -
Tags generated
Created
Modified
Stats Distance 143 nm / 264 km
Max Altitude 11,300 ft / 3,444 m
Waypoints 3
Social Downloads 1
Likes 0
Share VATSIM

Download

Looking for another format? Having issues loading an existing format? Contact us
Advertisement - Login to hide

Notes

Basic altitude profile: - Ascent Rate: 2500ft/min - Ascent Speed: 250kts - Cruise Altitude: 35000ft - Cruise Speed: 420kts - Descent Rate: 1500ft/min - Descent Speed: 250kts Options: - Use NATs: yes - Use PACOTS: yes - Use low airways: no - Use high airways: yes

Route

EGHI ADMIS EGSH

ID Type Via Altitude Latitude Longitude Leg Dist Tot Dist Heading (true) Name
O EGHI APT - 0 ft / 0 m 50.95026˚ -1.35681˚ - 0 nm - Southampton
ADMIS FIX - 11,300 ft / 3,444 m 51.99694˚ 0.17667˚ 85 nm 85 nm 42° / 43° -
O EGSH APT - 0 ft / 0 m 52.67686˚ 1.28449˚ 57 nm 142 nm 44° / 45° Norwich

Altitude Profile

Advertisement - Login to hide

EGHI

Details ICAO EGHI (SOU)
Name Southampton
Region United Kingdom
Timezone Europe/London (UTC+0.0)
Stats Elevation 44 ft / 13 m (AMSL)
Location 50.950255° -1.356806°
Runways 1
Magnetic Variation 0.813° W

METAR

EGHI 140620Z 26005KT 9999 FEW032 04/01 Q0995

Decode

TAF

Not found

Departure Runways

ID Width Length Bearing (true) Bearing (mag) Surface Threshold Offset Overrun Length
02 121 ft / 37 m 5,650 ft / 1,722 m 19.33° 20.14° Asphalt 240 ft / 73 m 0 ft / 0 m
20 121 ft / 37 m 5,650 ft / 1,722 m 199.34° 200.15° Asphalt 144 ft / 44 m 0 ft / 0 m

EGSH

Details ICAO EGSH (NWI)
Name Norwich
Region United Kingdom
Timezone Europe/London (UTC+0.0)
Stats Elevation 117 ft / 36 m (AMSL)
Location 52.676860° 1.284493°
Runways 2
Magnetic Variation 0.077° W

METAR

EGSH 140620Z 25012KT 9999 FEW009 SCT013 BKN018 03/02 Q0989

Decode

TAF

Not found

Destination Runways

ID Width Length Bearing (true) Bearing (mag) Surface Threshold Offset Overrun Length
09 148 ft / 45 m 6,023 ft / 1,836 m 89.29° 89.37° Asphalt 0 ft / 0 m 0 ft / 0 m
21 141 ft / 43 m 5,148 ft / 1,569 m 216.41° 216.49° Asphalt 0 ft / 0 m 0 ft / 0 m
27 148 ft / 45 m 6,023 ft / 1,836 m 269.31° 269.39° Asphalt 0 ft / 0 m 0 ft / 0 m
3 141 ft / 43 m 5,148 ft / 1,569 m 36.39° 36.47° Asphalt 991 ft / 302 m 0 ft / 0 m

Approach Navaids

Runway Type Ident Frequency Range Bearing (true) Bearing (mag) Slope Elevation
27 Localiser INH 110.90 MHz 18 nm / 33 km 269.24° 269.31° - 117 ft / 36 m (AMSL)
27 Glidescope INH 110.90 MHz 10 nm / 19 km 269.30° 269.38° 3.00° 117 ft / 36 m (AMSL)
27 DME INH 110.90 MHz 18 nm / 33 km - - - 137 ft / 42 m (AMSL)

Popular Alternatives